Waconia, Minnesota
Current Conditions -  °F | °C
As of 3:14 AM on Wednesday 28 Jan 2015 (Local Time) from KGYL Reporting Station
Overcast Overcast  
Wind Chill: 23°   Ceiling: 600
Heat Index: 32°   Visibility: 7mi
Dew Point: 31°   Wind: 12mph
Humidity: 98%   Direction: 140°SE
Pressure: 30.01"   Gusts: 17mph
Location:  44.85°N, 93.79°W
Report Text: KGYL 280914Z AUTO 14010G15KT 7SM OVC006 00/00 A3001 RMK AO2 T00001003
Loading
Personal Weather Stations






























Interactive Weather Map New forecast layout! Learn more

10-Day Weather Forecast

Advertisements
Track Severe Weather on mobile